createdAt,value
2023-03-17T00:00:16.568Z,5.35
2023-03-17T00:02:45.765Z,5.38
2023-03-17T00:05:25.662Z,5.30
2023-03-17T00:07:52.831Z,5.28
2023-03-17T00:10:22.222Z,5.31
2023-03-17T00:12:50.264Z,5.38
2023-03-17T00:15:17.783Z,5.40
2023-03-17T00:17:45.031Z,5.44
2023-03-17T00:20:14.663Z,5.44
2023-03-17T00:22:41.141Z,5.51
2023-03-17T00:25:18.927Z,5.47
2023-03-17T00:27:45.423Z,5.48
2023-03-17T00:30:12.270Z,5.37
2023-03-17T00:32:39.659Z,5.50
2023-03-17T00:35:15.002Z,5.40
2023-03-17T00:37:41.964Z,5.45
2023-03-17T00:40:20.312Z,5.50
2023-03-17T00:42:47.002Z,5.51
2023-03-17T00:45:13.533Z,5.47
2023-03-17T00:47:40.441Z,5.50
2023-03-17T00:50:10.116Z,5.54
2023-03-17T00:52:36.587Z,5.58
2023-03-17T00:55:03.482Z,5.58
2023-03-17T00:57:30.292Z,5.55
2023-03-17T00:59:56.826Z,5.54
2023-03-17T01:02:24.256Z,5.50
2023-03-17T01:04:59.820Z,5.49
2023-03-17T01:07:30.446Z,5.48
2023-03-17T01:09:57.070Z,5.45
2023-03-17T01:12:23.628Z,5.45
2023-03-17T01:14:50.076Z,5.46
2023-03-17T01:17:18.167Z,5.45
2023-03-17T01:19:46.085Z,5.49
2023-03-17T01:22:13.492Z,5.50
2023-03-17T01:24:40.547Z,5.48
2023-03-17T01:27:07.158Z,5.52
2023-03-17T01:29:34.778Z,5.55
2023-03-17T01:32:01.258Z,5.52
2023-03-17T01:34:28.134Z,5.58
2023-03-17T01:36:54.735Z,5.51
2023-03-17T01:39:21.212Z,5.48
2023-03-17T01:41:47.672Z,5.50
2023-03-17T01:44:18.522Z,5.59
2023-03-17T01:46:46.040Z,5.57
2023-03-17T01:49:15.974Z,5.67
2023-03-17T01:52:10.334Z,5.70
2023-03-17T01:54:46.360Z,5.81
2023-03-17T01:57:26.960Z,5.82
2023-03-17T02:00:01.590Z,5.84
2023-03-17T02:02:30.850Z,5.87
2023-03-17T02:04:57.907Z,5.92
2023-03-17T02:07:26.493Z,5.88
2023-03-17T02:09:53.598Z,5.77
2023-03-17T02:12:21.210Z,5.69
2023-03-17T02:14:47.688Z,5.67
2023-03-17T02:17:14.666Z,5.58
2023-03-17T02:19:41.949Z,5.48
2023-03-17T02:22:08.677Z,5.50
2023-03-17T02:24:37.772Z,5.60
2023-03-17T02:27:24.672Z,5.58
2023-03-17T02:29:52.062Z,5.61
2023-03-17T02:32:18.713Z,5.78
2023-03-17T02:34:48.187Z,5.73
2023-03-17T02:37:15.937Z,5.77
2023-03-17T02:39:42.590Z,5.86
2023-03-17T02:42:09.380Z,5.82
2023-03-17T02:47:17.204Z,5.81
2023-03-17T02:49:43.674Z,5.81
2023-03-17T02:52:10.128Z,5.87
2023-03-17T02:54:36.714Z,5.87
2023-03-17T02:57:03.198Z,5.79
2023-03-17T02:59:29.776Z,5.80
2023-03-17T03:01:56.267Z,5.79
2023-03-17T03:04:22.787Z,5.74
2023-03-17T03:06:49.242Z,5.67
2023-03-17T03:09:17.708Z,5.71
2023-03-17T03:11:44.227Z,5.72
2023-03-17T03:14:11.059Z,5.65
2023-03-17T03:16:37.950Z,5.56
2023-03-17T03:19:04.622Z,5.51
2023-03-17T03:21:31.652Z,5.53
2023-03-17T03:23:58.446Z,5.51
2023-03-17T03:26:24.954Z,5.45
2023-03-17T03:28:51.940Z,5.46
2023-03-17T03:31:18.443Z,5.46
2023-03-17T03:33:44.969Z,5.44
2023-03-17T03:36:11.561Z,5.49
2023-03-17T03:38:38.155Z,5.48
2023-03-17T03:41:04.690Z,5.49
2023-03-17T03:43:31.238Z,5.46
2023-03-17T03:45:57.748Z,5.37
2023-03-17T03:48:24.482Z,5.30
2023-03-17T03:50:50.988Z,5.37
2023-03-17T03:53:17.866Z,5.35
2023-03-17T03:55:44.352Z,5.39
2023-03-17T03:58:11.324Z,5.39
2023-03-17T04:00:38.514Z,5.38
2023-03-17T04:03:05.209Z,5.34
2023-03-17T04:05:31.788Z,5.34
2023-03-17T04:07:58.238Z,5.29
2023-03-17T04:10:24.762Z,5.19
2023-03-17T04:12:51.318Z,5.16
2023-03-17T04:15:18.399Z,5.12
2023-03-17T04:17:44.881Z,5.18
2023-03-17T04:20:11.786Z,5.18
2023-03-17T04:22:38.240Z,5.26
2023-03-17T04:25:05.492Z,5.19
2023-03-17T04:27:32.257Z,5.27
2023-03-17T04:29:58.741Z,5.23
2023-03-17T04:32:27.211Z,5.31
2023-03-17T04:34:53.839Z,5.36
2023-03-17T04:37:20.502Z,5.33
2023-03-17T04:39:47.358Z,5.29
2023-03-17T04:42:13.914Z,5.38
2023-03-17T04:44:41.050Z,5.35
2023-03-17T04:47:07.686Z,5.31
2023-03-17T04:49:34.512Z,5.22
2023-03-17T04:52:01.389Z,5.21
2023-03-17T04:54:27.862Z,5.25
2023-03-17T04:56:54.344Z,5.27
2023-03-17T04:59:21.040Z,5.24
2023-03-17T05:01:47.759Z,5.30
2023-03-17T05:04:22.124Z,5.35
2023-03-17T05:06:58.197Z,5.32
2023-03-17T05:09:25.257Z,5.38
2023-03-17T05:11:52.110Z,5.33
2023-03-17T05:14:18.590Z,5.34
2023-03-17T05:16:49.932Z,5.43
2023-03-17T05:19:17.376Z,5.48
2023-03-17T05:21:44.071Z,5.55
2023-03-17T05:24:10.631Z,5.43
2023-03-17T05:26:37.141Z,5.36
2023-03-17T05:29:03.661Z,5.47
2023-03-17T05:31:30.986Z,5.38
2023-03-17T05:33:57.903Z,5.34
2023-03-17T05:36:24.629Z,5.35
2023-03-17T05:38:51.125Z,5.36
2023-03-17T05:41:17.779Z,5.28
2023-03-17T05:43:44.254Z,5.28
2023-03-17T05:46:11.143Z,5.29
2023-03-17T05:48:37.646Z,5.28
2023-03-17T05:51:04.803Z,5.32
2023-03-17T05:53:31.310Z,5.27
2023-03-17T05:55:57.800Z,5.32
2023-03-17T05:58:24.263Z,5.29
2023-03-17T06:00:51.081Z,5.21
2023-03-17T06:03:17.575Z,5.27
2023-03-17T06:05:44.121Z,5.31
2023-03-17T06:08:10.619Z,5.39
2023-03-17T06:10:37.084Z,5.33
2023-03-17T06:13:04.452Z,5.33
2023-03-17T06:15:31.292Z,5.48
2023-03-17T06:17:57.872Z,5.56
2023-03-17T06:20:24.328Z,5.63
2023-03-17T06:23:03.404Z,5.69
2023-03-17T06:25:30.968Z,5.72
2023-03-17T06:27:57.761Z,5.78
2023-03-17T06:30:24.260Z,5.90
2023-03-17T06:32:50.756Z,5.94
2023-03-17T06:35:17.956Z,5.97
2023-03-17T06:37:44.516Z,5.95
2023-03-17T06:40:12.514Z,6.01
2023-03-17T06:42:38.980Z,6.02
2023-03-17T06:45:05.876Z,6.00
2023-03-17T06:47:32.363Z,6.11
2023-03-17T06:49:58.837Z,6.11
2023-03-17T06:52:25.316Z,6.06
2023-03-17T06:54:51.926Z,6.15
2023-03-17T06:57:18.379Z,6.21
2023-03-17T06:59:46.101Z,6.31
2023-03-17T07:02:12.656Z,6.43
2023-03-17T07:04:39.376Z,6.62
2023-03-17T07:07:05.975Z,6.75
2023-03-17T07:09:36.554Z,6.74
2023-03-17T07:12:05.951Z,6.72
2023-03-17T07:14:33.848Z,6.65
2023-03-17T07:17:00.422Z,6.69
2023-03-17T07:19:27.268Z,6.74
2023-03-17T07:21:55.815Z,6.75
2023-03-17T07:24:22.753Z,6.81
2023-03-17T07:26:49.233Z,6.84
2023-03-17T07:29:16.481Z,6.90
2023-03-17T07:31:44.182Z,7.01
2023-03-17T07:34:11.225Z,7.04
2023-03-17T07:36:40.162Z,7.06
2023-03-17T07:39:07.004Z,7.09
2023-03-17T07:41:33.472Z,7.12
2023-03-17T07:43:59.953Z,7.17
2023-03-17T07:46:26.579Z,7.23
2023-03-17T07:48:53.283Z,7.22
2023-03-17T07:51:22.169Z,7.35
2023-03-17T07:53:50.151Z,7.52
2023-03-17T07:56:17.672Z,7.56
2023-03-17T07:58:45.168Z,7.63
2023-03-17T08:01:12.212Z,7.66
2023-03-17T08:03:41.593Z,7.73
2023-03-17T08:06:09.403Z,7.73
2023-03-17T08:08:35.923Z,7.92
2023-03-17T08:11:03.713Z,8.02
2023-03-17T08:13:31.252Z,7.97
2023-03-17T08:15:57.744Z,8.21
2023-03-17T08:18:24.270Z,8.21
2023-03-17T08:20:51.414Z,8.45
2023-03-17T08:23:18.982Z,8.44
2023-03-17T08:25:45.737Z,8.76
2023-03-17T08:28:12.266Z,8.75
2023-03-17T08:30:39.221Z,8.93
2023-03-17T08:33:06.158Z,9.16
2023-03-17T08:35:32.997Z,9.20
2023-03-17T08:38:00.143Z,9.32
2023-03-17T08:40:26.620Z,9.44
2023-03-17T08:42:53.450Z,9.55
2023-03-17T08:45:20.035Z,9.57
2023-03-17T08:47:47.553Z,9.60
2023-03-17T08:50:19.516Z,9.67
2023-03-17T08:52:46.110Z,9.69
2023-03-17T08:55:13.465Z,9.66
2023-03-17T08:57:39.937Z,9.55
2023-03-17T09:00:10.939Z,9.48
2023-03-17T09:02:38.292Z,9.45
2023-03-17T09:05:06.830Z,9.44
2023-03-17T09:07:33.640Z,9.52
2023-03-17T09:10:00.577Z,9.32
2023-03-17T09:12:27.078Z,9.36
2023-03-17T09:14:54.594Z,9.38
2023-03-17T09:17:21.715Z,9.55
2023-03-17T09:19:48.502Z,9.72
2023-03-17T09:22:15.975Z,9.71
2023-03-17T09:24:42.450Z,9.87
2023-03-17T09:27:09.017Z,10.16
2023-03-17T09:29:35.533Z,10.10
2023-03-17T09:32:02.297Z,9.95
2023-03-17T09:34:28.764Z,9.86
2023-03-17T09:36:55.277Z,9.82
2023-03-17T09:39:23.078Z,9.99
2023-03-17T09:41:58.536Z,10.06
2023-03-17T09:44:43.246Z,10.17
2023-03-17T09:47:42.751Z,10.22
2023-03-17T09:50:12.915Z,10.35
2023-03-17T09:52:39.416Z,10.52
2023-03-17T09:55:08.486Z,10.68
2023-03-17T09:57:38.511Z,10.81
2023-03-17T10:00:16.534Z,10.93
2023-03-17T10:02:43.460Z,11.00
2023-03-17T10:05:12.934Z,11.06
2023-03-17T10:07:43.047Z,10.97
2023-03-17T10:10:33.209Z,10.96
2023-03-17T10:13:12.753Z,10.92
2023-03-17T10:16:01.562Z,11.16
2023-03-17T10:18:30.286Z,11.16
2023-03-17T10:21:01.839Z,11.40
2023-03-17T10:23:30.519Z,11.67
2023-03-17T10:25:59.758Z,11.45
2023-03-17T10:28:31.481Z,11.65
2023-03-17T10:31:19.029Z,12.00
2023-03-17T10:33:49.025Z,12.41
2023-03-17T10:36:16.612Z,12.80
2023-03-17T10:38:50.898Z,12.97
2023-03-17T10:41:17.423Z,13.27
2023-03-17T10:43:45.853Z,13.06
2023-03-17T10:46:24.332Z,13.22
2023-03-17T10:48:53.196Z,13.44
2023-03-17T10:51:31.625Z,13.47
2023-03-17T10:54:03.876Z,13.54
2023-03-17T10:56:33.930Z,13.38
2023-03-17T10:59:05.758Z,13.78
2023-03-17T11:01:39.919Z,13.74
2023-03-17T11:04:39.468Z,13.78
2023-03-17T11:07:19.582Z,13.79
2023-03-17T11:09:50.574Z,13.87
2023-03-17T11:12:29.852Z,14.07
2023-03-17T11:15:00.707Z,14.02
2023-03-17T11:17:37.967Z,13.96
2023-03-17T11:20:36.138Z,13.90
2023-03-17T11:23:26.438Z,14.00
2023-03-17T11:25:55.757Z,14.11
2023-03-17T11:28:24.974Z,14.30
2023-03-17T11:31:15.642Z,14.20
2023-03-17T11:34:09.233Z,14.24
2023-03-17T11:37:03.554Z,14.54
2023-03-17T11:39:44.777Z,14.61
2023-03-17T11:42:18.496Z,14.79
2023-03-17T11:45:02.583Z,14.75
2023-03-17T11:47:43.050Z,15.02
2023-03-17T11:50:22.070Z,15.08
2023-03-17T11:53:08.660Z,14.96
2023-03-17T11:55:47.779Z,15.02
2023-03-17T11:58:41.497Z,15.18
2023-03-17T12:01:09.181Z,15.39
2023-03-17T12:03:46.165Z,15.53
2023-03-17T12:06:23.421Z,15.25
2023-03-17T12:09:10.081Z,14.95
2023-03-17T12:11:39.107Z,14.58
2023-03-17T12:14:07.560Z,14.84
2023-03-17T12:17:10.968Z,15.24
2023-03-17T12:19:49.090Z,15.10
2023-03-17T12:22:28.444Z,15.33
2023-03-17T12:25:25.562Z,15.10
2023-03-17T12:28:13.697Z,15.36
2023-03-17T12:30:49.330Z,15.42
2023-03-17T12:33:27.826Z,15.33
2023-03-17T12:35:54.626Z,15.38
2023-03-17T12:38:43.233Z,15.39
2023-03-17T12:41:49.040Z,15.39
2023-03-17T12:44:40.311Z,15.06
2023-03-17T12:47:25.169Z,15.03
2023-03-17T12:49:56.926Z,15.12
2023-03-17T12:52:47.368Z,15.03
2023-03-17T12:55:15.898Z,14.96
2023-03-17T12:57:47.037Z,14.82
2023-03-17T13:00:25.245Z,14.79
2023-03-17T13:03:07.136Z,14.75
2023-03-17T13:05:34.215Z,14.63
2023-03-17T13:08:01.569Z,14.77
2023-03-17T13:10:43.755Z,14.96
2023-03-17T13:13:36.366Z,15.06
2023-03-17T13:16:04.444Z,14.66
2023-03-17T13:18:34.049Z,14.67
2023-03-17T13:21:00.860Z,14.58
2023-03-17T13:23:40.036Z,14.45
2023-03-17T13:26:06.906Z,14.38
2023-03-17T13:28:36.793Z,14.28
2023-03-17T13:31:31.447Z,14.37
2023-03-17T13:34:12.929Z,14.49
2023-03-17T13:37:01.343Z,14.73
2023-03-17T13:39:55.521Z,14.63
2023-03-17T13:42:29.446Z,14.55
2023-03-17T13:45:07.937Z,14.47
2023-03-17T13:47:36.564Z,14.62
2023-03-17T13:50:13.352Z,14.45
2023-03-17T13:52:39.756Z,14.17
2023-03-17T13:55:18.235Z,14.18
2023-03-17T13:58:12.151Z,14.25
2023-03-17T14:00:40.223Z,14.23
2023-03-17T14:03:17.484Z,14.09
2023-03-17T14:05:47.413Z,14.04
2023-03-17T14:08:32.562Z,13.95
2023-03-17T14:11:04.392Z,14.05
2023-03-17T14:13:42.122Z,14.09
2023-03-17T14:16:17.116Z,13.90
2023-03-17T14:18:49.652Z,14.02
2023-03-17T14:21:32.189Z,14.05
2023-03-17T14:24:02.613Z,14.16
2023-03-17T14:26:30.725Z,14.18
2023-03-17T14:29:01.105Z,14.04
2023-03-17T14:31:28.133Z,13.94
2023-03-17T14:33:55.946Z,13.88
2023-03-17T14:36:22.899Z,13.90
2023-03-17T14:38:51.183Z,13.86
2023-03-17T14:41:18.722Z,13.66
2023-03-17T14:43:45.302Z,13.77
2023-03-17T14:46:17.531Z,13.70
2023-03-17T14:48:46.493Z,13.66
2023-03-17T14:51:37.724Z,13.72
2023-03-17T14:54:33.710Z,13.72
2023-03-17T14:57:06.364Z,13.79
2023-03-17T14:59:36.435Z,13.76
2023-03-17T15:02:27.969Z,13.77
2023-03-17T15:05:19.324Z,13.75
2023-03-17T15:07:46.062Z,13.76
2023-03-17T15:10:20.405Z,13.80
2023-03-17T15:12:46.887Z,13.79
2023-03-17T15:15:24.110Z,13.76
2023-03-17T15:17:51.601Z,13.70
2023-03-17T15:20:18.120Z,13.67
2023-03-17T15:22:48.722Z,13.68
2023-03-17T15:25:37.714Z,13.58
2023-03-17T15:28:23.945Z,13.57
2023-03-17T15:30:51.594Z,13.51
2023-03-17T15:33:24.711Z,13.52
2023-03-17T15:35:51.553Z,13.47
2023-03-17T15:38:18.084Z,13.47
2023-03-17T15:40:44.632Z,13.43
2023-03-17T15:43:15.376Z,13.41
2023-03-17T15:45:43.731Z,13.44
2023-03-17T15:48:20.225Z,13.33
2023-03-17T15:50:47.203Z,13.37
2023-03-17T15:53:13.865Z,13.34
2023-03-17T15:55:40.367Z,13.28
2023-03-17T15:58:06.856Z,13.24
2023-03-17T16:00:34.015Z,13.30
2023-03-17T16:03:13.043Z,13.28
2023-03-17T16:05:39.609Z,13.18
2023-03-17T16:08:06.819Z,13.14
2023-03-17T16:10:33.780Z,13.10
2023-03-17T16:13:00.455Z,13.16
2023-03-17T16:15:31.643Z,13.13
2023-03-17T16:17:59.212Z,13.08
2023-03-17T16:20:34.273Z,13.05
2023-03-17T16:23:19.519Z,12.99
2023-03-17T16:25:46.411Z,12.93
2023-03-17T16:28:26.199Z,12.91
2023-03-17T16:30:54.262Z,12.94
2023-03-17T16:33:27.431Z,12.87
2023-03-17T16:35:55.518Z,12.80
2023-03-17T16:38:24.010Z,12.76
2023-03-17T16:40:51.937Z,12.69
2023-03-17T16:43:30.623Z,12.68
2023-03-17T16:46:01.039Z,12.67
2023-03-17T16:48:27.528Z,12.62
2023-03-17T16:50:54.034Z,12.65
2023-03-17T16:53:20.728Z,12.65
2023-03-17T16:55:47.226Z,12.61
2023-03-17T16:58:21.636Z,12.55
2023-03-17T17:00:48.599Z,12.53
2023-03-17T17:03:15.355Z,12.46
2023-03-17T17:05:42.130Z,12.49
2023-03-17T17:08:08.859Z,12.53
2023-03-17T17:10:35.513Z,12.49
2023-03-17T17:13:02.631Z,12.45
2023-03-17T17:15:29.242Z,12.45
2023-03-17T17:17:57.681Z,12.44
2023-03-17T17:20:31.064Z,12.37
2023-03-17T17:22:58.517Z,12.32
2023-03-17T17:25:25.466Z,12.26
2023-03-17T17:27:52.246Z,12.23
2023-03-17T17:30:20.216Z,12.25
2023-03-17T17:32:47.037Z,12.16
2023-03-17T17:35:14.251Z,12.22
2023-03-17T17:37:40.863Z,12.12
2023-03-17T17:40:08.460Z,12.14
2023-03-17T17:42:35.304Z,12.09
2023-03-17T17:45:01.786Z,12.03
2023-03-17T17:47:32.136Z,12.00
2023-03-17T17:49:58.933Z,11.96
2023-03-17T17:52:25.495Z,11.92
2023-03-17T17:54:52.260Z,11.89
2023-03-17T17:57:18.794Z,11.91
2023-03-17T17:59:45.552Z,11.92
2023-03-17T18:02:12.532Z,11.93
2023-03-17T18:04:39.134Z,11.93
2023-03-17T18:07:05.689Z,11.91
2023-03-17T18:09:32.522Z,11.95
2023-03-17T18:11:59.048Z,11.88
2023-03-17T18:14:25.697Z,11.86
2023-03-17T18:16:52.249Z,11.85
2023-03-17T18:19:18.799Z,11.91
2023-03-17T18:21:46.443Z,11.91
2023-03-17T18:24:13.386Z,11.89
2023-03-17T18:26:39.855Z,11.85
2023-03-17T18:29:06.821Z,11.81
2023-03-17T18:31:44.419Z,11.83
2023-03-17T18:34:24.679Z,11.88
2023-03-17T18:36:51.134Z,11.86
2023-03-17T18:39:17.812Z,11.86
2023-03-17T18:41:44.321Z,11.91
2023-03-17T18:44:11.051Z,11.94
2023-03-17T18:46:37.666Z,11.94
2023-03-17T18:49:05.250Z,11.94
2023-03-17T18:51:31.881Z,11.91
2023-03-17T18:53:58.359Z,11.94
2023-03-17T18:56:28.940Z,11.83
2023-03-17T18:58:56.288Z,11.83
2023-03-17T19:01:22.879Z,11.63
2023-03-17T19:03:49.687Z,11.58
2023-03-17T19:06:17.902Z,11.41
2023-03-17T19:08:44.491Z,11.39
2023-03-17T19:11:11.979Z,11.27
2023-03-17T19:13:38.515Z,11.31
2023-03-17T19:16:05.457Z,11.32
2023-03-17T19:18:31.932Z,11.15
2023-03-17T19:20:58.440Z,11.19
2023-03-17T19:23:24.959Z,11.23
2023-03-17T19:25:51.510Z,11.32
2023-03-17T19:28:18.379Z,11.45
2023-03-17T19:30:45.858Z,11.53
2023-03-17T19:33:13.187Z,11.48
2023-03-17T19:35:40.177Z,11.48
2023-03-17T19:38:08.190Z,11.50
2023-03-17T19:40:36.985Z,11.53
2023-03-17T19:43:04.393Z,11.56
2023-03-17T19:45:31.366Z,11.57
2023-03-17T19:47:57.999Z,11.58
2023-03-17T19:50:24.763Z,11.56
2023-03-17T19:52:53.189Z,11.49
2023-03-17T19:55:20.748Z,11.50
2023-03-17T19:57:47.783Z,11.51
2023-03-17T20:00:14.640Z,11.52
2023-03-17T20:02:41.223Z,11.49
2023-03-17T20:05:08.169Z,11.37
2023-03-17T20:07:34.988Z,11.42
2023-03-17T20:10:01.892Z,11.45
2023-03-17T20:12:30.240Z,11.43
2023-03-17T20:14:56.718Z,11.47
2023-03-17T20:17:23.189Z,11.61
2023-03-17T20:19:49.669Z,11.61
2023-03-17T20:22:16.214Z,11.63
2023-03-17T20:24:43.437Z,11.60
2023-03-17T20:27:11.220Z,11.51
2023-03-17T20:29:38.456Z,11.57
2023-03-17T20:32:04.981Z,11.57
2023-03-17T20:34:31.868Z,11.56
2023-03-17T20:36:58.397Z,11.56
2023-03-17T20:39:24.943Z,11.52
2023-03-17T20:41:51.569Z,11.51
2023-03-17T20:44:18.095Z,11.54
2023-03-17T20:46:44.677Z,11.59
2023-03-17T20:49:11.643Z,11.57
2023-03-17T20:51:38.153Z,11.66
2023-03-17T20:54:04.664Z,11.61
2023-03-17T20:56:33.633Z,11.53
2023-03-17T20:59:04.781Z,11.51
2023-03-17T21:01:33.183Z,11.44
2023-03-17T21:03:59.845Z,11.44
2023-03-17T21:06:28.267Z,11.37
2023-03-17T21:08:55.265Z,11.43
2023-03-17T21:11:23.158Z,11.48
2023-03-17T21:13:49.913Z,11.45
2023-03-17T21:16:21.785Z,11.48
2023-03-17T21:18:48.358Z,11.43
2023-03-17T21:21:15.058Z,11.37
2023-03-17T21:23:41.969Z,11.37
2023-03-17T21:26:09.182Z,11.33
2023-03-17T21:28:36.367Z,11.36
2023-03-17T21:31:02.922Z,11.34
2023-03-17T21:33:29.403Z,11.30
2023-03-17T21:35:58.613Z,11.26
2023-03-17T21:38:27.338Z,11.19
2023-03-17T21:40:57.536Z,11.14
2023-03-17T21:43:24.279Z,11.15
2023-03-17T21:45:51.045Z,11.09
2023-03-17T21:48:17.561Z,11.06
2023-03-17T21:50:44.113Z,11.00
2023-03-17T21:53:13.741Z,11.01
2023-03-17T21:55:41.332Z,10.96
2023-03-17T21:58:08.151Z,10.91
2023-03-17T22:00:44.655Z,10.97
2023-03-17T22:03:11.870Z,10.96
2023-03-17T22:05:38.429Z,10.81
2023-03-17T22:08:05.428Z,10.80
2023-03-17T22:10:32.152Z,10.84
2023-03-17T22:12:58.834Z,10.84
2023-03-17T22:15:25.326Z,10.84
2023-03-17T22:17:53.108Z,10.84
2023-03-17T22:20:20.307Z,10.80
2023-03-17T22:22:46.783Z,10.84
2023-03-17T22:25:13.306Z,10.72
2023-03-17T22:27:40.076Z,10.82
2023-03-17T22:30:06.818Z,10.74
2023-03-17T22:32:33.350Z,10.74
2023-03-17T22:35:00.149Z,10.47
2023-03-17T22:37:27.828Z,10.41
2023-03-17T22:39:54.340Z,10.24
2023-03-17T22:42:21.031Z,10.22
2023-03-17T22:44:47.505Z,10.04
2023-03-17T22:47:13.960Z,9.99
2023-03-17T22:49:40.907Z,9.90
2023-03-17T22:52:08.602Z,9.86
2023-03-17T22:54:35.093Z,9.82
2023-03-17T22:57:01.581Z,9.53
2023-03-17T22:59:28.051Z,9.67
2023-03-17T23:01:54.517Z,9.55
2023-03-17T23:04:21.282Z,9.58
2023-03-17T23:06:48.789Z,9.40
2023-03-17T23:09:15.534Z,9.42
2023-03-17T23:11:42.736Z,9.47
2023-03-17T23:14:09.216Z,9.31
2023-03-17T23:16:37.602Z,9.30
2023-03-17T23:19:04.759Z,9.21
2023-03-17T23:21:33.854Z,9.15
2023-03-17T23:24:00.613Z,9.15
2023-03-17T23:26:27.460Z,9.16
2023-03-17T23:28:53.964Z,9.17
2023-03-17T23:31:22.302Z,9.44
2023-03-17T23:33:49.145Z,9.35
2023-03-17T23:36:16.243Z,9.25
2023-03-17T23:38:42.881Z,9.41
2023-03-17T23:41:09.724Z,9.19
2023-03-17T23:43:37.363Z,9.31
2023-03-17T23:46:04.737Z,9.51
2023-03-17T23:48:31.279Z,9.42
2023-03-17T23:50:57.785Z,9.45
2023-03-17T23:53:24.596Z,9.27
2023-03-17T23:55:51.418Z,9.16
2023-03-17T23:58:18.082Z,9.14
